SBOSBO FAE / EKVG
Speedbird OnlineSpeedbird Online FAE / EKVG

Vagar Airport
16:55 10°C

Location Vagar, Faroe Islands
Latitude: 62.063598632812
Longitude: -7.2772197723389
Local Time 16:55 on 20 Jun 2024
UTC +1 hours (Atlantic/Faeroe)
Currency £1 equals DKK 8.84
METAR EKVG 201520Z AUTO 25007KT 4500 DZRA BR OVC001/// 10/09 Q1010 RMK OVC006/// WIND SKEID 25017G28KT 210V290
TAF TAF EKVG 201401Z 2015/2021 23016KT 9999 DZ SCT010 BKN015 TEMPO 2015/2018 1200 DZRA BR OVC003 TEMPO 2018/2021 4000 DZRA BR OVC007 BECMG 2019/2021 17014KT
Weather As Of 20 Jun 2024 16:55
Description Light rain
Wind 13 km/h from South-West (240°)
Cloud Cover 100%
Precipitation Rain: none, Snow: none
Sunrise 03:37
Sunset 23:24
Codes IATA: FAE
ICAO: EKVG
Altitude 85 Meter / 280 Feet
Distance 1,255 KM / 780 Miles
from London.



Support Speedbird Online

© 2017-2024 Speedbird Online